Time;durP1;ratioP1;P1;durP2;ratioP2;P2;SDS_P1;SDS_P2;PMS_P1;PMS_P2;Temp;Humidity;BMP_temperature;BMP_pressure;BME280_temperature;BME280_humidity;BME280_pressure;Samples;Min_cycle;Max_cycle;Signal;HPM_P1;HPM_P2
2021/05/06 00:01:27;;;;;;;22.35;15.43;;;6.50;99.90;;;;;;5011018;28;20573;-80
2021/05/06 00:32:01;;;;;;;22.77;14.77;;;5.80;99.90;;;;;;5020926;28;20052;-80
2021/05/06 00:34:29;;;;;;;25.55;15.52;;;5.80;99.90;;;;;;5021474;28;20057;-79
2021/05/06 00:36:55;;;;;;;20.38;15.50;;;5.60;99.90;;;;;;5020613;28;20613;-79
2021/05/06 00:39:25;;;;;;;20.80;15.82;;;5.60;99.90;;;;;;5020414;28;20060;-79
2021/05/06 00:42:06;;;;;;;23.42;15.43;;;5.60;99.90;;;;;;5023383;28;20057;-79
2021/05/06 00:45:16;;;;;;;21.10;16.27;;;5.50;99.90;;;;;;5025114;28;20065;-79
2021/05/06 01:01:57;;;;;;;21.13;17.02;;;5.30;99.90;;;;;;4984534;28;20051;-79
2021/05/06 01:04:32;;;;;;;24.25;17.95;;;5.20;99.90;;;;;;5010503;28;20054;-78
2021/05/06 01:07:11;;;;;;;28.30;17.88;;;5.20;99.90;;;;;;5024050;28;20061;-78
2021/05/06 01:09:42;;;;;;;22.90;17.40;;;5.10;99.90;;;;;;5022224;28;20597;-80
2021/05/06 01:12:08;;;;;;;25.17;18.38;;;5.10;99.90;;;;;;5021817;28;20092;-80
2021/05/06 01:14:35;;;;;;;23.00;17.42;;;5.10;99.90;;;;;;5023103;28;20513;-80
2021/05/06 01:17:01;;;;;;;24.65;17.10;;;5.00;99.90;;;;;;4999251;28;20099;-79
2021/05/06 01:19:28;;;;;;;26.88;16.35;;;5.00;99.90;;;;;;5016875;28;20159;-80
2021/05/06 01:21:56;;;;;;;24.55;17.40;;;4.90;99.90;;;;;;5018052;28;20179;-79
2021/05/06 01:24:24;;;;;;;26.80;18.23;;;4.90;99.90;;;;;;5018469;28;20140;-78
2021/05/06 01:26:56;;;;;;;27.85;17.88;;;4.80;99.90;;;;;;5017624;28;20042;-80
2021/05/06 01:29:27;;;;;;;24.75;17.52;;;4.80;99.90;;;;;;5017122;28;20132;-80
2021/05/06 01:32:04;;;;;;;24.30;16.88;;;4.80;99.90;;;;;;5019416;28;20080;-81
2021/05/06 01:34:30;;;;;;;25.38;16.15;;;4.80;99.90;;;;;;5019554;28;20053;-80
2021/05/06 01:37:06;;;;;;;21.80;14.65;;;4.80;99.90;;;;;;5019688;28;20052;-81
2021/05/06 01:39:45;;;;;;;21.55;14.02;;;4.80;99.90;;;;;;5019676;28;20113;-80
2021/05/06 01:42:14;;;;;;;20.60;14.15;;;4.80;99.90;;;;;;5019082;28;20042;-81
2021/05/06 01:47:43;;;;;;;19.80;13.20;;;4.80;99.90;;;;;;5008720;28;20052;-81
2021/05/06 01:58:35;;;;;;;15.15;10.35;;;4.80;99.90;;;;;;4996853;28;20422;-79
2021/05/06 02:01:04;;;;;;;18.83;10.80;;;4.80;99.90;;;;;;4994910;28;20054;-78
2021/05/06 02:03:30;;;;;;;14.57;10.00;;;4.80;99.90;;;;;;4993927;28;20527;-79
2021/05/06 02:05:58;;;;;;;11.85;8.77;;;4.80;99.90;;;;;;4994362;28;20413;-78
2021/05/06 02:08:26;;;;;;;15.02;8.77;;;4.80;99.90;;;;;;4995641;28;20514;-79
2021/05/06 02:10:56;;;;;;;14.23;9.10;;;4.80;99.90;;;;;;4995537;28;20069;-77
2021/05/06 02:13:22;;;;;;;12.52;8.15;;;4.80;99.90;;;;;;4993553;28;20072;-78
2021/05/06 02:15:50;;;;;;;9.75;7.50;;;4.80;99.90;;;;;;4993291;28;20104;-78
2021/05/06 02:18:17;;;;;;;12.57;7.43;;;4.80;99.90;;;;;;4993748;28;20135;-78
2021/05/06 02:20:46;;;;;;;11.82;6.90;;;4.80;99.90;;;;;;4994568;28;20093;-78
2021/05/06 02:23:12;;;;;;;9.80;6.82;;;4.80;99.90;;;;;;4993813;28;20060;-78
2021/05/06 02:25:39;;;;;;;10.07;6.30;;;4.90;99.90;;;;;;4992653;28;20100;-77
2021/05/06 02:28:06;;;;;;;8.93;5.75;;;4.90;99.90;;;;;;4992180;28;20141;-77
2021/05/06 02:30:33;;;;;;;10.88;5.75;;;4.90;99.90;;;;;;4992408;28;20074;-77
2021/05/06 02:33:01;;;;;;;8.20;5.78;;;5.00;99.90;;;;;;4992499;28;20104;-76
2021/05/06 02:35:28;;;;;;;10.85;5.97;;;5.00;99.90;;;;;;4992452;28;20058;-77
2021/05/06 02:37:54;;;;;;;10.50;5.32;;;5.10;99.90;;;;;;4992211;28;20054;-77
2021/05/06 02:40:21;;;;;;;8.70;4.88;;;5.20;99.90;;;;;;4992687;28;20162;-78
2021/05/06 02:42:48;;;;;;;7.75;4.78;;;5.20;99.90;;;;;;4992384;28;20081;-78
2021/05/06 02:45:15;;;;;;;6.95;4.88;;;5.30;99.90;;;;;;4993685;28;20093;-78
2021/05/06 02:47:41;;;;;;;8.98;4.80;;;5.30;99.90;;;;;;4993020;28;20054;-79
2021/05/06 02:50:12;;;;;;;9.43;4.50;;;5.30;99.90;;;;;;4995195;28;20082;-79
2021/05/06 02:52:42;;;;;;;7.35;4.93;;;5.40;99.90;;;;;;4994057;28;20054;-79
2021/05/06 02:55:14;;;;;;;8.07;4.72;;;5.50;99.90;;;;;;4993961;28;20057;-78
2021/05/06 02:57:43;;;;;;;9.55;4.70;;;5.50;99.90;;;;;;4993949;28;20054;-77
2021/05/06 03:03:11;;;;;;;6.40;4.55;;;5.60;99.90;;;;;;4972368;28;20076;-77
2021/05/06 03:05:39;;;;;;;9.70;4.80;;;5.60;99.90;;;;;;4971855;28;20055;-77
2021/05/06 03:08:09;;;;;;;7.93;4.63;;;5.60;99.90;;;;;;4981656;28;20054;-78
2021/05/06 03:24:20;;;;;;;9.25;4.80;;;5.70;99.90;;;;;;4994294;28;20551;-79
2021/05/06 03:26:47;;;;;;;12.65;5.05;;;5.70;99.90;;;;;;4994020;28;20518;-78
2021/05/06 03:29:17;;;;;;;8.05;5.35;;;5.70;99.90;;;;;;4995655;28;20054;-79
2021/05/06 03:31:57;;;;;;;8.45;5.32;;;5.60;99.90;;;;;;4995640;28;20593;-80
2021/05/06 03:34:40;;;;;;;10.80;4.95;;;5.60;99.90;;;;;;4996066;28;20050;-79
2021/05/06 03:43:00;;;;;;;9.02;4.68;;;5.60;99.90;;;;;;4975482;28;20098;-78
2021/05/06 03:45:47;;;;;;;9.80;4.88;;;5.60;99.90;;;;;;4989168;28;20093;-79
2021/05/06 04:14:21;;;;;;;11.32;4.97;;;5.80;99.90;;;;;;4995415;28;20576;-78
2021/05/06 04:16:35;;;;;;;9.88;5.32;;;5.80;99.90;;;;;;4994778;28;20046;-78
2021/05/06 04:19:08;;;;;;;13.65;5.75;;;5.90;99.90;;;;;;4995819;28;20050;-78
2021/05/06 04:21:45;;;;;;;10.50;5.22;;;5.90;99.90;;;;;;4995367;28;20116;-77
2021/05/06 04:27:05;;;;;;;12.70;5.35;;;6.00;99.90;;;;;;4995086;28;20252;-78
2021/05/06 04:29:58;;;;;;;8.70;5.18;;;6.10;99.90;;;;;;4995856;28;20060;-78
2021/05/06 04:35:37;;;;;;;8.77;4.95;;;6.10;99.90;;;;;;4986869;28;20043;-78
2021/05/06 04:38:05;;;;;;;11.68;4.60;;;6.10;99.90;;;;;;4996203;28;20051;-79
2021/05/06 04:40:47;;;;;;;13.05;5.25;;;6.20;99.90;;;;;;4996788;28;20204;-80
2021/05/06 04:54:23;;;;;;;8.05;4.82;;;6.30;99.90;;;;;;4987134;28;20491;-79
2021/05/06 04:57:04;;;;;;;9.15;4.55;;;6.30;99.90;;;;;;4996534;28;20054;-80
2021/05/06 05:05:06;;;;;;;8.95;4.63;;;6.50;99.90;;;;;;4961050;28;20038;-81
2021/05/06 05:07:35;;;;;;;12.48;5.10;;;6.60;99.90;;;;;;4998284;28;20459;-80
2021/05/06 05:18:26;;;;;;;9.98;5.50;;;6.90;99.90;;;;;;4998517;28;20137;-79
2021/05/06 05:23:39;;;;;;;13.30;7.30;;;7.00;99.90;;;;;;4996653;28;20100;-78
2021/05/06 05:26:08;;;;;;;10.27;5.78;;;7.00;99.90;;;;;;4996530;28;20061;-79
2021/05/06 05:28:34;;;;;;;10.65;5.95;;;7.10;99.90;;;;;;4997700;28;20153;-78
2021/05/06 05:31:00;;;;;;;11.18;6.32;;;7.20;99.90;;;;;;4996755;28;20164;-78
2021/05/06 05:33:29;;;;;;;10.27;5.88;;;7.20;99.90;;;;;;4995366;28;20054;-78
2021/05/06 05:36:05;;;;;;;8.45;5.80;;;7.30;99.90;;;;;;4995631;28;20327;-79
2021/05/06 05:38:42;;;;;;;11.32;5.80;;;7.40;99.90;;;;;;4995903;28;20240;-78
2021/05/06 05:44:04;;;;;;;11.77;6.13;;;7.60;99.90;;;;;;4994274;28;20057;-78
2021/05/06 05:54:49;;;;;;;9.10;5.90;;;8.80;99.90;;;;;;4993078;28;20109;-76
2021/05/06 05:57:16;;;;;;;9.90;6.07;;;8.90;99.90;;;;;;4993112;28;20168;-76
2021/05/06 05:59:43;;;;;;;9.88;6.00;;;9.00;99.90;;;;;;4992621;28;20085;-76
2021/05/06 06:02:09;;;;;;;9.20;6.07;;;9.10;99.90;;;;;;4993320;28;20139;-74
2021/05/06 06:04:36;;;;;;;12.90;6.57;;;9.20;99.90;;;;;;4993336;28;20133;-76
2021/05/06 06:07:02;;;;;;;10.15;5.75;;;9.10;99.90;;;;;;4993300;28;20146;-76
2021/05/06 06:09:29;;;;;;;9.57;6.70;;;9.20;99.90;;;;;;4993229;28;20136;-76
2021/05/06 06:11:55;;;;;;;9.30;6.10;;;9.10;99.90;;;;;;4994072;28;20054;-77
2021/05/06 06:14:25;;;;;;;8.80;5.55;;;9.20;99.90;;;;;;4992977;28;20050;-76
2021/05/06 06:16:52;;;;;;;9.32;6.07;;;9.40;99.90;;;;;;4992766;28;20061;-75
2021/05/06 06:19:23;;;;;;;10.25;5.95;;;9.50;99.90;;;;;;4993423;28;20525;-76
2021/05/06 06:21:52;;;;;;;10.88;6.25;;;9.70;99.90;;;;;;4993249;28;20201;-76
2021/05/06 06:24:19;;;;;;;9.95;6.07;;;10.00;99.90;;;;;;4994130;28;20136;-76
2021/05/06 06:26:46;;;;;;;11.85;6.38;;;10.30;99.90;;;;;;4992437;28;20137;-77
2021/05/06 06:29:15;;;;;;;8.77;6.18;;;10.60;99.90;;;;;;4992438;28;20498;-77
2021/05/06 06:31:44;;;;;;;9.45;5.65;;;10.80;99.90;;;;;;4992311;28;20302;-76
2021/05/06 06:34:11;;;;;;;16.05;5.88;;;11.20;99.90;;;;;;4992471;28;20050;-76
2021/05/06 06:36:39;;;;;;;9.32;5.32;;;11.40;99.90;;;;;;4992662;28;20053;-76
2021/05/06 06:39:06;;;;;;;8.80;5.93;;;11.70;99.90;;;;;;4993118;28;20479;-76
2021/05/06 06:41:33;;;;;;;8.60;5.32;;;11.70;99.90;;;;;;4992909;28;20073;-76
2021/05/06 06:44:02;;;;;;;7.72;5.22;;;11.80;99.90;;;;;;4992706;28;20234;-76
2021/05/06 06:46:28;;;;;;;10.07;4.95;;;12.00;99.90;;;;;;4993027;28;20096;-76
2021/05/06 06:48:57;;;;;;;10.48;5.03;;;12.20;99.90;;;;;;4993203;28;20113;-77
2021/05/06 06:51:24;;;;;;;8.57;4.70;;;12.10;99.90;;;;;;4993072;28;20133;-77
2021/05/06 06:53:51;;;;;;;6.90;5.03;;;12.20;99.90;;;;;;4995597;28;20141;-80
2021/05/06 06:56:17;;;;;;;8.55;4.78;;;12.00;99.90;;;;;;4993294;28;20082;-77
2021/05/06 06:58:48;;;;;;;7.07;4.50;;;12.10;99.90;;;;;;4993320;28;20137;-76
2021/05/06 07:01:14;;;;;;;9.30;4.90;;;11.90;99.90;;;;;;4993510;28;20078;-77
2021/05/06 07:03:41;;;;;;;7.55;4.90;;;11.60;99.90;;;;;;4993039;28;20152;-78
2021/05/06 07:06:08;;;;;;;8.13;4.97;;;11.60;99.90;;;;;;4992765;28;20133;-76
2021/05/06 07:08:38;;;;;;;9.25;5.03;;;11.50;99.90;;;;;;4992585;28;20097;-76
2021/05/06 07:11:06;;;;;;;9.13;4.75;;;11.60;99.90;;;;;;4992418;28;20057;-77
2021/05/06 07:13:34;;;;;;;10.43;5.03;;;11.90;99.90;;;;;;4992558;28;20088;-78
2021/05/06 07:16:02;;;;;;;9.95;5.22;;;11.90;99.90;;;;;;4992912;28;20050;-77
2021/05/06 07:18:29;;;;;;;7.85;4.50;;;11.70;99.90;;;;;;4992096;28;20430;-76
2021/05/06 07:20:56;;;;;;;8.25;4.82;;;11.70;99.90;;;;;;4992327;28;20133;-77
2021/05/06 07:23:24;;;;;;;8.30;5.75;;;11.60;99.90;;;;;;4992798;28;20085;-77
2021/05/06 07:25:52;;;;;;;9.82;4.30;;;12.10;99.90;;;;;;4992744;28;20125;-77
2021/05/06 07:28:20;;;;;;;7.80;4.47;;;12.50;99.90;;;;;;4991603;28;20460;-77
2021/05/06 07:30:48;;;;;;;9.43;5.88;;;12.60;99.90;;;;;;4992123;28;20057;-77
2021/05/06 07:33:15;;;;;;;10.15;4.55;;;12.80;99.90;;;;;;4992321;28;20494;-77
2021/05/06 07:35:42;;;;;;;6.55;4.47;;;12.70;99.90;;;;;;5005483;28;20141;-78
2021/05/06 07:38:10;;;;;;;9.27;4.60;;;12.50;99.90;;;;;;5011788;28;20133;-77
2021/05/06 07:40:39;;;;;;;8.50;4.70;;;12.60;99.90;;;;;;5011548;28;20404;-76
2021/05/06 07:43:05;;;;;;;4.60;4.05;;;12.80;99.90;;;;;;5011854;28;20069;-76
2021/05/06 07:45:32;;;;;;;7.63;4.20;;;12.50;99.90;;;;;;5011583;28;20049;-78
2021/05/06 07:47:59;;;;;;;7.20;4.35;;;12.60;99.90;;;;;;5010913;28;20129;-76
2021/05/06 07:50:26;;;;;;;8.93;4.32;;;12.70;99.90;;;;;;5011593;28;20054;-75
2021/05/06 07:52:55;;;;;;;5.82;3.85;;;13.00;99.90;;;;;;5011329;28;20109;-77
2021/05/06 07:55:21;;;;;;;9.00;4.70;;;13.30;99.90;;;;;;5046402;23;20073;-80
2021/05/06 07:57:49;;;;;;;7.75;5.07;;;13.10;99.90;;;;;;5037962;28;20136;-80
2021/05/06 08:00:20;;;;;;;8.77;4.22;;;13.10;99.90;;;;;;5038014;28;20136;-78
2021/05/06 08:02:49;;;;;;;7.85;5.47;;;13.10;99.90;;;;;;5038553;28;20064;-78
2021/05/06 08:05:16;;;;;;;8.27;4.68;;;13.10;99.90;;;;;;5038552;28;20077;-79
2021/05/06 08:07:43;;;;;;;10.38;5.35;;;12.90;99.90;;;;;;5037994;28;20088;-79
2021/05/06 08:10:11;;;;;;;4.47;3.80;;;13.10;99.90;;;;;;5038081;28;20061;-79
2021/05/06 08:12:37;;;;;;;7.13;4.18;;;13.50;99.90;;;;;;5038513;28;20136;-81
2021/05/06 08:15:07;;;;;;;9.95;4.30;;;13.80;99.90;;;;;;5035764;28;20073;-80
2021/05/06 08:17:34;;;;;;;6.20;4.15;;;14.00;99.90;;;;;;5035217;28;20069;-79
2021/05/06 08:20:03;;;;;;;6.07;4.20;;;13.70;99.90;;;;;;5035813;28;20073;-78
2021/05/06 08:22:29;;;;;;;6.85;4.28;;;13.80;99.90;;;;;;5034749;28;20506;-79
2021/05/06 08:24:55;;;;;;;6.20;4.38;;;13.70;99.90;;;;;;5040722;28;20129;-80
2021/05/06 08:27:22;;;;;;;5.28;4.28;;;13.80;99.90;;;;;;5040723;28;20073;-76
2021/05/06 08:29:54;;;;;;;8.00;4.50;;;13.30;99.90;;;;;;5041784;28;20053;-78
2021/05/06 08:32:22;;;;;;;11.20;4.30;;;12.80;99.90;;;;;;5040975;28;20111;-79
2021/05/06 08:34:49;;;;;;;8.00;4.90;;;12.80;99.90;;;;;;5039986;28;20132;-79
2021/05/06 08:37:15;;;;;;;6.68;4.32;;;12.80;99.90;;;;;;5039019;28;20136;-79
2021/05/06 08:39:42;;;;;;;6.88;4.32;;;12.80;99.90;;;;;;5039592;28;20053;-78
2021/05/06 08:42:09;;;;;;;8.40;5.03;;;12.70;99.90;;;;;;5038624;28;20521;-80
2021/05/06 08:44:37;;;;;;;7.57;5.15;;;12.70;99.90;;;;;;5040064;28;20064;-78
2021/05/06 08:47:05;;;;;;;6.78;4.70;;;12.80;99.90;;;;;;5035809;28;20125;-79
2021/05/06 08:49:33;;;;;;;12.32;5.00;;;12.80;99.90;;;;;;5034986;28;20122;-79
2021/05/06 08:52:00;;;;;;;9.40;4.38;;;12.90;99.90;;;;;;5039588;28;20136;-78
2021/05/06 08:54:27;;;;;;;10.15;4.78;;;12.90;99.90;;;;;;5041496;28;20359;-79
2021/05/06 08:56:53;;;;;;;6.00;4.80;;;13.50;99.90;;;;;;5040930;28;20042;-78
2021/05/06 08:59:20;;;;;;;6.70;4.38;;;13.90;99.90;;;;;;5038886;28;20137;-79
2021/05/06 09:01:47;;;;;;;6.35;4.07;;;14.10;99.90;;;;;;5038631;28;20149;-80
2021/05/06 09:04:13;;;;;;;8.23;4.68;;;14.20;99.90;;;;;;5038610;28;20045;-79
2021/05/06 09:06:54;;;;;;;10.00;5.15;;;14.40;99.90;;;;;;5038844;28;20049;-79
2021/05/06 09:09:21;;;;;;;6.47;4.25;;;14.60;99.90;;;;;;5037936;28;20049;-79
2021/05/06 09:11:53;;;;;;;8.35;4.55;;;14.70;99.90;;;;;;5038156;28;20073;-78
2021/05/06 09:14:33;;;;;;;6.97;4.10;;;14.60;99.90;;;;;;5038660;28;20532;-77
2021/05/06 09:17:00;;;;;;;6.72;4.30;;;14.70;99.90;;;;;;5035859;28;20124;-79
2021/05/06 09:19:26;;;;;;;4.93;3.60;;;14.90;99.90;;;;;;5038364;28;20041;-79
2021/05/06 09:21:55;;;;;;;7.97;3.90;;;14.80;99.90;;;;;;5038849;28;20132;-79
2021/05/06 09:24:24;;;;;;;5.72;3.72;;;14.20;99.90;;;;;;5038282;28;20050;-80
2021/05/06 09:26:53;;;;;;;10.43;4.40;;;13.70;99.90;;;;;;5038527;28;20049;-80
2021/05/06 09:29:31;;;;;;;7.65;4.20;;;13.60;99.90;;;;;;5036579;28;20113;-80
2021/05/06 09:32:09;;;;;;;7.30;3.92;;;13.60;99.90;;;;;;5036986;28;20049;-80
2021/05/06 09:34:36;;;;;;;9.82;3.92;;;13.70;99.90;;;;;;5038896;28;20625;-79
2021/05/06 09:37:07;;;;;;;4.85;3.80;;;13.60;99.90;;;;;;5039356;28;20042;-79
2021/05/06 09:39:34;;;;;;;6.50;4.20;;;13.80;99.90;;;;;;5039862;28;20072;-80
2021/05/06 09:42:10;;;;;;;6.72;3.80;;;13.70;99.90;;;;;;5039221;28;20088;-78
2021/05/06 09:44:53;;;;;;;5.88;4.55;;;13.90;99.90;;;;;;5034695;28;20088;-78
2021/05/06 09:47:20;;;;;;;8.15;4.03;;;14.20;99.90;;;;;;5035117;28;20136;-79
2021/05/06 09:49:49;;;;;;;7.35;3.65;;;14.50;99.90;;;;;;5033187;28;20051;-79
2021/05/06 09:52:16;;;;;;;4.10;3.38;;;14.80;99.90;;;;;;5037971;28;20509;-80
2021/05/06 09:54:51;;;;;;;4.35;3.10;;;14.70;99.90;;;;;;5038135;28;20053;-79
2021/05/06 09:57:28;;;;;;;7.03;3.42;;;14.70;99.90;;;;;;5037838;28;20057;-80
2021/05/06 10:00:15;;;;;;;5.20;3.65;;;14.70;99.90;;;;;;5035808;28;20105;-79
2021/05/06 10:02:42;;;;;;;8.77;3.63;;;14.40;99.90;;;;;;5037733;28;20049;-79
2021/05/06 10:05:11;;;;;;;6.32;3.60;;;14.20;99.90;;;;;;5037010;28;20060;-78
2021/05/06 10:07:52;;;;;;;5.40;3.10;;;14.20;99.90;;;;;;5036984;28;20045;-78
2021/05/06 10:10:18;;;;;;;3.80;2.88;;;14.00;99.90;;;;;;5036574;28;20323;-79
2021/05/06 10:12:45;;;;;;;5.80;3.25;;;14.00;99.90;;;;;;5037039;28;20076;-80
2021/05/06 10:15:14;;;;;;;7.43;3.40;;;14.00;99.90;;;;;;5037416;28;20073;-79
2021/05/06 10:17:40;;;;;;;4.97;2.97;;;14.10;99.90;;;;;;5037584;28;20051;-80
2021/05/06 10:20:08;;;;;;;4.88;3.05;;;14.10;99.90;;;;;;5033953;28;20056;-79
2021/05/06 10:22:35;;;;;;;5.43;3.42;;;14.20;99.90;;;;;;5036366;28;20465;-78
2021/05/06 10:25:04;;;;;;;8.27;3.50;;;14.30;99.90;;;;;;5035332;28;20045;-80
2021/05/06 10:27:31;;;;;;;5.05;3.65;;;14.40;99.90;;;;;;5038980;28;20042;-79
2021/05/06 10:29:57;;;;;;;4.93;3.40;;;14.60;99.90;;;;;;5038638;28;20084;-78
2021/05/06 10:32:25;;;;;;;4.93;3.22;;;14.60;99.90;;;;;;5038737;28;20046;-78
2021/05/06 10:34:55;;;;;;;4.80;3.50;;;14.60;99.90;;;;;;5037927;28;20159;-79
2021/05/06 10:37:25;;;;;;;4.43;3.20;;;14.60;99.90;;;;;;5037678;28;20045;-79
2021/05/06 10:39:52;;;;;;;5.57;3.17;;;14.50;99.90;;;;;;5036383;28;20054;-79
2021/05/06 10:42:35;;;;;;;6.63;3.63;;;14.50;99.90;;;;;;5037203;28;20122;-79
2021/05/06 10:45:18;;;;;;;4.68;3.30;;;14.60;99.90;;;;;;5034294;28;20115;-79
2021/05/06 10:47:55;;;;;;;5.30;3.35;;;14.60;99.90;;;;;;5036991;28;20112;-79
2021/05/06 10:50:25;;;;;;;7.82;3.70;;;14.90;99.90;;;;;;5035285;28;20049;-79
2021/05/06 10:52:52;;;;;;;5.00;3.40;;;15.10;99.90;;;;;;5037612;28;20049;-78
2021/05/06 10:55:56;;;;;;;6.53;3.53;;;15.10;99.90;;;;;;5039249;28;20624;-80
2021/05/06 10:58:40;;;;;;;6.20;3.35;;;15.20;99.90;;;;;;5047725;28;20059;-79
2021/05/06 11:01:40;;;;;;;7.38;3.45;;;15.20;99.90;;;;;;5046868;28;20079;-79
2021/05/06 11:04:09;;;;;;;7.50;3.47;;;15.30;99.20;;;;;;5045008;28;20461;-78
2021/05/06 11:06:45;;;;;;;5.00;3.67;;;15.30;99.90;;;;;;5037498;28;20037;-79
2021/05/06 11:09:50;;;;;;;5.13;3.92;;;15.40;99.80;;;;;;5024017;28;20050;-79
2021/05/06 11:12:22;;;;;;;4.85;3.22;;;15.50;99.90;;;;;;5050747;28;20132;-77
2021/05/06 11:15:30;;;;;;;6.97;3.72;;;15.70;99.40;;;;;;5058056;28;20095;-79
2021/05/06 11:18:06;;;;;;;7.40;4.00;;;15.70;99.70;;;;;;5056803;28;20057;-80
2021/05/06 11:20:53;;;;;;;5.90;3.50;;;15.70;99.10;;;;;;5031176;28;20566;-77
2021/05/06 11:23:35;;;;;;;7.82;3.70;;;15.70;98.50;;;;;;5014150;28;20053;-77
2021/05/06 11:26:07;;;;;;;5.55;3.50;;;15.70;98.00;;;;;;5029465;28;20516;-78
2021/05/06 11:28:46;;;;;;;5.45;3.65;;;15.80;98.40;;;;;;5035163;28;20060;-78
2021/05/06 11:31:13;;;;;;;4.63;3.78;;;15.90;97.00;;;;;;5036924;28;20049;-78
2021/05/06 11:33:40;;;;;;;5.25;3.60;;;16.00;97.80;;;;;;5044927;28;20049;-79
2021/05/06 11:36:20;;;;;;;6.40;3.45;;;16.10;97.40;;;;;;5025231;28;20048;-77
2021/05/06 11:38:50;;;;;;;5.68;4.38;;;15.90;97.30;;;;;;5016597;28;20057;-79
2021/05/06 11:41:20;;;;;;;5.65;3.83;;;15.90;97.00;;;;;;5032081;28;20053;-77
2021/05/06 11:43:48;;;;;;;7.40;3.70;;;15.90;97.30;;;;;;5034847;28;20049;-77
2021/05/06 11:46:16;;;;;;;4.10;3.10;;;15.80;97.20;;;;;;5033002;28;20136;-78
2021/05/06 11:48:46;;;;;;;5.40;3.30;;;15.60;96.70;;;;;;5038825;28;20136;-78
2021/05/06 11:51:25;;;;;;;6.72;3.67;;;15.30;97.10;;;;;;5035951;28;20080;-78
2021/05/06 11:54:02;;;;;;;6.18;4.00;;;15.00;96.50;;;;;;5016058;28;20280;-78
2021/05/06 11:56:32;;;;;;;9.10;3.40;;;14.90;97.50;;;;;;5014156;28;20141;-78
2021/05/06 11:58:59;;;;;;;7.20;3.72;;;14.80;97.30;;;;;;5019282;28;20125;-79
2021/05/06 12:01:29;;;;;;;5.53;3.60;;;14.90;98.30;;;;;;5020295;28;20245;-79
2021/05/06 12:03:57;;;;;;;4.85;3.55;;;14.90;98.10;;;;;;5026955;28;20050;-79
2021/05/06 12:06:35;;;;;;;10.82;4.05;;;14.80;99.20;;;;;;5020910;28;20134;-77
2021/05/06 12:09:06;;;;;;;5.80;4.00;;;14.90;98.70;;;;;;5025042;28;20093;-79
2021/05/06 12:11:37;;;;;;;7.78;3.88;;;15.00;97.40;;;;;;5026028;28;20113;-79
2021/05/06 12:14:04;;;;;;;6.45;4.00;;;15.00;98.80;;;;;;5028686;28;20108;-79
2021/05/06 12:16:34;;;;;;;5.57;3.85;;;15.10;99.00;;;;;;5031308;28;20046;-79
2021/05/06 12:19:41;;;;;;;6.10;4.05;;;15.20;98.10;;;;;;5022138;28;20054;-79
2021/05/06 12:22:09;;;;;;;5.63;3.70;;;15.30;98.20;;;;;;5040909;28;20056;-78
2021/05/06 12:24:37;;;;;;;6.38;3.92;;;15.20;97.20;;;;;;5041788;28;20041;-78
2021/05/06 12:27:16;;;;;;;7.43;4.10;;;15.30;97.60;;;;;;5043680;28;20037;-79
2021/05/06 12:29:46;;;;;;;6.57;3.75;;;15.30;97.60;;;;;;5041582;28;20080;-79
2021/05/06 12:32:21;;;;;;;5.75;4.15;;;15.20;97.20;;;;;;5039641;28;20466;-77
2021/05/06 12:34:49;;;;;;;6.28;4.00;;;15.30;97.60;;;;;;5039870;28;20407;-79
2021/05/06 12:37:16;;;;;;;6.15;4.03;;;15.50;97.50;;;;;;5040178;28;20049;-77
2021/05/06 12:39:46;;;;;;;6.43;4.18;;;15.50;96.60;;;;;;5038317;28;20518;-77
2021/05/06 12:42:13;;;;;;;5.90;3.88;;;15.60;95.50;;;;;;5041430;28;20128;-79
2021/05/06 12:44:42;;;;;;;7.82;4.10;;;15.70;96.00;;;;;;5039385;28;20140;-77
2021/05/06 12:47:17;;;;;;;6.57;4.28;;;15.80;96.00;;;;;;5040677;28;20045;-78
2021/05/06 12:49:45;;;;;;;8.43;3.85;;;15.80;94.70;;;;;;5042745;28;20536;-79
2021/05/06 12:52:35;;;;;;;7.07;4.03;;;15.90;94.40;;;;;;5051421;28;20060;-76
2021/05/06 12:55:14;;;;;;;6.13;3.33;;;15.80;93.70;;;;;;5056483;28;20060;-79
2021/05/06 12:57:40;;;;;;;6.32;3.30;;;15.80;94.00;;;;;;5055973;28;20046;-78
2021/05/06 13:00:25;;;;;;;5.65;3.30;;;16.00;93.70;;;;;;5056279;28;20060;-80
2021/05/06 13:03:01;;;;;;;6.90;3.58;;;16.20;93.20;;;;;;5050947;28;20053;-79
2021/05/06 13:05:29;;;;;;;5.75;3.30;;;16.40;93.40;;;;;;5041834;28;20052;-79
2021/05/06 13:07:57;;;;;;;6.20;3.60;;;16.20;92.70;;;;;;5040325;28;20081;-79
2021/05/06 13:10:31;;;;;;;6.50;3.17;;;16.10;92.30;;;;;;5024572;28;20054;-78
2021/05/06 13:12:57;;;;;;;4.22;3.20;;;16.00;92.60;;;;;;5019403;28;20109;-78
2021/05/06 13:15:24;;;;;;;5.30;3.17;;;16.10;94.40;;;;;;5019052;28;20050;-79
2021/05/06 13:17:50;;;;;;;6.40;3.90;;;16.00;93.30;;;;;;5018149;28;20196;-79
2021/05/06 13:20:20;;;;;;;6.15;3.58;;;16.10;93.00;;;;;;5018808;28;20046;-80
2021/05/06 13:23:01;;;;;;;5.45;3.22;;;16.20;93.40;;;;;;5021239;28;20525;-79
2021/05/06 13:25:42;;;;;;;6.20;3.40;;;16.30;93.50;;;;;;5017435;28;20129;-77
2021/05/06 13:28:08;;;;;;;6.60;3.35;;;16.30;92.90;;;;;;5035410;28;20240;-77
2021/05/06 13:30:40;;;;;;;5.97;3.53;;;16.10;92.70;;;;;;5029675;28;20141;-78
2021/05/06 13:33:18;;;;;;;6.50;3.28;;;16.10;93.10;;;;;;5018313;28;20104;-78
2021/05/06 13:36:06;;;;;;;6.25;3.35;;;16.00;92.80;;;;;;5017754;28;20143;-79
2021/05/06 13:38:54;;;;;;;6.45;3.42;;;15.70;93.70;;;;;;5019521;28;20081;-78
2021/05/06 13:41:23;;;;;;;5.93;3.50;;;15.70;93.20;;;;;;5017873;28;20057;-79
2021/05/06 13:43:51;;;;;;;5.40;3.33;;;15.70;93.60;;;;;;5032383;28;20105;-79
2021/05/06 13:46:18;;;;;;;7.32;4.13;;;15.60;93.80;;;;;;5036409;28;20050;-78
2021/05/06 13:48:44;;;;;;;4.88;3.30;;;15.60;94.00;;;;;;5037152;28;20080;-79
2021/05/06 13:51:12;;;;;;;4.97;3.30;;;15.60;93.70;;;;;;5038418;28;20089;-79
2021/05/06 13:56:17;;;;;;;6.15;3.50;;;15.40;93.10;;;;;;5030168;28;20053;-76
2021/05/06 13:58:44;;;;;;;5.57;3.50;;;15.40;94.00;;;;;;5033999;28;20057;-79
2021/05/06 14:01:12;;;;;;;7.05;3.63;;;15.30;95.60;;;;;;5029239;28;20486;-78
2021/05/06 14:03:39;;;;;;;5.90;3.40;;;15.30;97.20;;;;;;5024616;28;20524;-79
2021/05/06 14:06:06;;;;;;;5.57;3.28;;;15.40;97.30;;;;;;5003129;28;20049;-79
2021/05/06 14:08:33;;;;;;;5.82;3.80;;;15.30;97.40;;;;;;5008585;28;20478;-79
2021/05/06 14:11:00;;;;;;;5.68;3.35;;;15.40;98.00;;;;;;5013876;28;20139;-79
2021/05/06 14:13:28;;;;;;;7.35;3.90;;;15.40;97.90;;;;;;5013963;28;20133;-78
2021/05/06 14:15:55;;;;;;;6.82;3.50;;;15.20;96.20;;;;;;5012835;28;20465;-79
2021/05/06 14:18:21;;;;;;;7.25;4.22;;;14.90;96.50;;;;;;5012922;28;20140;-77
2021/05/06 14:20:48;;;;;;;7.30;4.07;;;14.80;97.70;;;;;;5012158;28;20108;-79
2021/05/06 14:23:17;;;;;;;4.15;3.58;;;14.60;97.50;;;;;;5013238;28;20570;-78
2021/05/06 14:25:44;;;;;;;7.15;3.65;;;14.30;98.90;;;;;;5009207;28;20061;-78
2021/05/06 14:28:11;;;;;;;5.85;3.70;;;14.10;99.50;;;;;;5005339;28;20140;-78
2021/05/06 14:30:38;;;;;;;9.27;3.92;;;13.90;99.90;;;;;;5013518;28;20050;-77
2021/05/06 14:33:05;;;;;;;10.05;3.78;;;13.80;99.90;;;;;;5015026;28;20046;-79
2021/05/06 14:35:32;;;;;;;6.75;5.13;;;13.80;99.90;;;;;;5013928;28;20061;-78
2021/05/06 14:37:58;;;;;;;8.52;3.95;;;13.80;99.90;;;;;;5014568;28;20046;-78
2021/05/06 14:40:25;;;;;;;9.60;6.18;;;13.70;99.90;;;;;;5015097;28;20052;-77
2021/05/06 14:42:51;;;;;;;4.70;3.83;;;13.70;99.90;;;;;;5005548;28;20477;-78
2021/05/06 14:45:18;;;;;;;5.95;3.70;;;13.70;99.90;;;;;;5009813;28;20053;-78
2021/05/06 14:47:45;;;;;;;4.28;3.50;;;13.70;99.90;;;;;;5013392;28;20046;-79
2021/05/06 14:50:13;;;;;;;10.43;3.90;;;13.80;99.90;;;;;;5014141;28;20357;-78
2021/05/06 14:52:40;;;;;;;6.75;4.10;;;13.80;99.90;;;;;;5015175;28;20188;-78
2021/05/06 14:55:09;;;;;;;5.32;3.88;;;13.90;99.90;;;;;;5014638;28;20077;-78
2021/05/06 14:57:36;;;;;;;4.82;3.88;;;13.90;99.90;;;;;;5013933;28;20138;-77
2021/05/06 15:00:04;;;;;;;7.95;4.03;;;14.00;99.90;;;;;;5015343;28;20133;-78
2021/05/06 15:02:30;;;;;;;5.45;3.75;;;13.80;99.90;;;;;;5015357;28;20104;-78
2021/05/06 15:04:58;;;;;;;9.95;5.03;;;13.60;99.90;;;;;;5002131;28;20482;-78
2021/05/06 15:07:24;;;;;;;5.80;4.05;;;13.40;99.90;;;;;;4997560;28;20121;-78
2021/05/06 15:09:50;;;;;;;7.72;4.30;;;13.40;99.90;;;;;;5014830;28;20055;-78
2021/05/06 15:12:17;;;;;;;9.00;4.53;;;13.20;99.90;;;;;;5013916;28;20137;-79
2021/05/06 15:14:43;;;;;;;5.18;3.90;;;13.10;99.90;;;;;;5014851;28;20085;-79
2021/05/06 15:17:10;;;;;;;6.68;4.82;;;13.10;99.90;;;;;;5015499;28;20141;-79
2021/05/06 15:19:36;;;;;;;7.60;4.50;;;13.00;99.90;;;;;;5015674;28;20049;-78
2021/05/06 15:22:03;;;;;;;8.05;4.60;;;12.80;99.90;;;;;;5014808;28;20042;-78
2021/05/06 15:24:30;;;;;;;8.73;4.40;;;12.80;99.90;;;;;;4999469;28;20257;-78
2021/05/06 15:26:56;;;;;;;8.15;4.47;;;12.80;99.90;;;;;;5001531;28;20073;-78
2021/05/06 15:29:24;;;;;;;6.15;4.43;;;12.70;99.90;;;;;;5013714;28;20140;-78
2021/05/06 15:31:51;;;;;;;7.15;4.00;;;12.70;99.90;;;;;;5014631;28;20092;-78